sensor_id;sensor_type;location;lat;lon;timestamp;P1;durP1;ratioP1;P2;durP2;ratioP2
12088;SDS011;6107;49.078;8.578;2022-09-21T00:03:42;5.47;;;3.33;;
12088;SDS011;6107;49.078;8.578;2022-09-21T00:06:14;4.90;;;3.33;;
12088;SDS011;6107;49.078;8.578;2022-09-21T00:08:41;6.40;;;3.47;;
12088;SDS011;6107;49.078;8.578;2022-09-21T00:11:15;6.23;;;3.53;;
12088;SDS011;6107;49.078;8.578;2022-09-21T00:13:46;5.13;;;3.00;;
12088;SDS011;6107;49.078;8.578;2022-09-21T00:16:15;8.00;;;3.53;;
12088;SDS011;6107;49.078;8.578;2022-09-21T00:18:41;6.90;;;3.50;;
12088;SDS011;6107;49.078;8.578;2022-09-21T00:21:08;6.03;;;3.60;;
12088;SDS011;6107;49.078;8.578;2022-09-21T00:23:35;4.37;;;3.37;;
12088;SDS011;6107;49.078;8.578;2022-09-21T00:26:03;7.87;;;3.33;;
12088;SDS011;6107;49.078;8.578;2022-09-21T00:28:34;4.90;;;3.10;;
12088;SDS011;6107;49.078;8.578;2022-09-21T00:31:03;4.63;;;3.57;;
12088;SDS011;6107;49.078;8.578;2022-09-21T00:33:31;5.13;;;3.47;;
12088;SDS011;6107;49.078;8.578;2022-09-21T00:36:04;4.43;;;3.50;;
12088;SDS011;6107;49.078;8.578;2022-09-21T00:38:31;4.43;;;2.93;;
12088;SDS011;6107;49.078;8.578;2022-09-21T00:40:57;6.97;;;3.27;;
12088;SDS011;6107;49.078;8.578;2022-09-21T00:43:23;5.43;;;3.60;;
12088;SDS011;6107;49.078;8.578;2022-09-21T00:45:48;6.27;;;3.70;;
12088;SDS011;6107;49.078;8.578;2022-09-21T00:48:18;5.63;;;3.67;;
12088;SDS011;6107;49.078;8.578;2022-09-21T00:50:45;4.50;;;3.33;;
12088;SDS011;6107;49.078;8.578;2022-09-21T00:53:17;4.23;;;3.23;;
12088;SDS011;6107;49.078;8.578;2022-09-21T00:55:45;5.43;;;3.47;;
12088;SDS011;6107;49.078;8.578;2022-09-21T00:58:14;6.77;;;3.77;;
12088;SDS011;6107;49.078;8.578;2022-09-21T01:00:44;7.73;;;3.80;;
12088;SDS011;6107;49.078;8.578;2022-09-21T01:03:10;6.53;;;3.60;;
12088;SDS011;6107;49.078;8.578;2022-09-21T01:05:36;8.20;;;3.77;;
12088;SDS011;6107;49.078;8.578;2022-09-21T01:08:02;5.93;;;3.70;;
12088;SDS011;6107;49.078;8.578;2022-09-21T01:10:31;5.43;;;3.63;;
12088;SDS011;6107;49.078;8.578;2022-09-21T01:18:19;4.60;;;3.37;;
12088;SDS011;6107;49.078;8.578;2022-09-21T01:23:20;4.60;;;3.13;;
12088;SDS011;6107;49.078;8.578;2022-09-21T01:31:20;6.17;;;3.50;;
12088;SDS011;6107;49.078;8.578;2022-09-21T01:33:56;5.27;;;3.67;;
12088;SDS011;6107;49.078;8.578;2022-09-21T01:36:27;7.77;;;4.23;;
12088;SDS011;6107;49.078;8.578;2022-09-21T01:38:55;4.20;;;3.33;;
12088;SDS011;6107;49.078;8.578;2022-09-21T01:41:26;5.03;;;3.37;;
12088;SDS011;6107;49.078;8.578;2022-09-21T01:43:55;6.37;;;4.03;;
12088;SDS011;6107;49.078;8.578;2022-09-21T01:46:27;6.67;;;3.67;;
12088;SDS011;6107;49.078;8.578;2022-09-21T01:48:56;7.93;;;4.27;;
12088;SDS011;6107;49.078;8.578;2022-09-21T01:51:28;10.03;;;4.63;;
12088;SDS011;6107;49.078;8.578;2022-09-21T01:54:19;5.27;;;3.50;;
12088;SDS011;6107;49.078;8.578;2022-09-21T01:56:58;5.77;;;3.83;;
12088;SDS011;6107;49.078;8.578;2022-09-21T01:59:33;5.13;;;3.60;;
12088;SDS011;6107;49.078;8.578;2022-09-21T02:02:11;5.63;;;4.10;;
12088;SDS011;6107;49.078;8.578;2022-09-21T02:04:40;4.77;;;3.37;;
12088;SDS011;6107;49.078;8.578;2022-09-21T02:07:06;5.63;;;3.23;;
12088;SDS011;6107;49.078;8.578;2022-09-21T02:09:33;10.67;;;3.70;;
12088;SDS011;6107;49.078;8.578;2022-09-21T02:12:00;5.57;;;3.50;;
12088;SDS011;6107;49.078;8.578;2022-09-21T02:14:26;4.83;;;3.27;;
12088;SDS011;6107;49.078;8.578;2022-09-21T02:16:56;8.20;;;4.03;;
12088;SDS011;6107;49.078;8.578;2022-09-21T02:19:47;5.43;;;3.30;;
12088;SDS011;6107;49.078;8.578;2022-09-21T02:22:30;5.37;;;3.30;;
12088;SDS011;6107;49.078;8.578;2022-09-21T02:25:20;6.13;;;3.40;;
12088;SDS011;6107;49.078;8.578;2022-09-21T02:27:49;5.57;;;3.77;;
12088;SDS011;6107;49.078;8.578;2022-09-21T02:30:23;6.53;;;3.60;;
12088;SDS011;6107;49.078;8.578;2022-09-21T02:38:32;5.30;;;3.40;;
12088;SDS011;6107;49.078;8.578;2022-09-21T02:43:56;4.20;;;3.17;;
12088;SDS011;6107;49.078;8.578;2022-09-21T02:46:31;5.77;;;3.70;;
12088;SDS011;6107;49.078;8.578;2022-09-21T02:49:15;6.90;;;4.43;;
12088;SDS011;6107;49.078;8.578;2022-09-21T02:51:50;6.37;;;3.63;;
12088;SDS011;6107;49.078;8.578;2022-09-21T02:54:21;5.20;;;3.40;;
12088;SDS011;6107;49.078;8.578;2022-09-21T02:56:50;5.47;;;3.57;;
12088;SDS011;6107;49.078;8.578;2022-09-21T02:59:18;4.93;;;3.80;;
12088;SDS011;6107;49.078;8.578;2022-09-21T03:01:46;5.63;;;3.67;;
12088;SDS011;6107;49.078;8.578;2022-09-21T03:04:12;5.07;;;3.40;;
12088;SDS011;6107;49.078;8.578;2022-09-21T03:06:37;5.17;;;3.83;;
12088;SDS011;6107;49.078;8.578;2022-09-21T03:09:03;7.10;;;4.10;;
12088;SDS011;6107;49.078;8.578;2022-09-21T03:11:28;7.60;;;4.07;;
12088;SDS011;6107;49.078;8.578;2022-09-21T03:13:54;7.07;;;4.10;;
12088;SDS011;6107;49.078;8.578;2022-09-21T03:16:20;6.37;;;4.00;;
12088;SDS011;6107;49.078;8.578;2022-09-21T03:18:48;7.77;;;4.23;;
12088;SDS011;6107;49.078;8.578;2022-09-21T03:21:14;6.20;;;4.27;;
12088;SDS011;6107;49.078;8.578;2022-09-21T03:23:39;7.50;;;4.40;;
12088;SDS011;6107;49.078;8.578;2022-09-21T03:26:05;11.63;;;5.60;;
12088;SDS011;6107;49.078;8.578;2022-09-21T03:28:31;11.30;;;5.07;;
12088;SDS011;6107;49.078;8.578;2022-09-21T03:30:56;10.13;;;5.50;;
12088;SDS011;6107;49.078;8.578;2022-09-21T03:33:22;6.20;;;4.03;;
12088;SDS011;6107;49.078;8.578;2022-09-21T03:35:49;4.70;;;3.43;;
12088;SDS011;6107;49.078;8.578;2022-09-21T03:38:15;6.43;;;4.13;;
12088;SDS011;6107;49.078;8.578;2022-09-21T03:40:45;4.90;;;3.70;;
12088;SDS011;6107;49.078;8.578;2022-09-21T03:43:13;5.23;;;3.80;;
12088;SDS011;6107;49.078;8.578;2022-09-21T03:45:39;6.70;;;4.33;;
12088;SDS011;6107;49.078;8.578;2022-09-21T03:48:08;8.70;;;4.20;;
12088;SDS011;6107;49.078;8.578;2022-09-21T03:50:35;5.97;;;3.73;;
12088;SDS011;6107;49.078;8.578;2022-09-21T03:53:01;5.73;;;3.90;;
12088;SDS011;6107;49.078;8.578;2022-09-21T03:55:27;8.20;;;5.00;;
12088;SDS011;6107;49.078;8.578;2022-09-21T03:57:53;14.30;;;7.20;;
12088;SDS011;6107;49.078;8.578;2022-09-21T04:00:19;16.50;;;7.03;;
12088;SDS011;6107;49.078;8.578;2022-09-21T04:02:44;6.93;;;4.23;;
12088;SDS011;6107;49.078;8.578;2022-09-21T04:05:11;6.93;;;4.63;;
12088;SDS011;6107;49.078;8.578;2022-09-21T04:07:41;6.37;;;4.47;;
12088;SDS011;6107;49.078;8.578;2022-09-21T04:10:10;8.37;;;4.60;;
12088;SDS011;6107;49.078;8.578;2022-09-21T04:12:37;16.60;;;8.23;;
12088;SDS011;6107;49.078;8.578;2022-09-21T04:15:07;13.37;;;6.57;;
12088;SDS011;6107;49.078;8.578;2022-09-21T04:17:34;13.00;;;5.83;;
12088;SDS011;6107;49.078;8.578;2022-09-21T04:19:59;10.23;;;5.10;;
12088;SDS011;6107;49.078;8.578;2022-09-21T04:22:25;9.10;;;5.27;;
12088;SDS011;6107;49.078;8.578;2022-09-21T04:24:51;10.30;;;5.53;;
12088;SDS011;6107;49.078;8.578;2022-09-21T04:27:16;13.40;;;5.97;;
12088;SDS011;6107;49.078;8.578;2022-09-21T04:29:42;21.07;;;9.00;;
12088;SDS011;6107;49.078;8.578;2022-09-21T04:32:08;11.13;;;5.20;;
12088;SDS011;6107;49.078;8.578;2022-09-21T04:34:34;14.43;;;6.67;;
12088;SDS011;6107;49.078;8.578;2022-09-21T04:37:03;14.37;;;6.83;;
12088;SDS011;6107;49.078;8.578;2022-09-21T04:39:32;9.77;;;5.80;;
12088;SDS011;6107;49.078;8.578;2022-09-21T04:41:58;9.57;;;5.20;;
12088;SDS011;6107;49.078;8.578;2022-09-21T04:44:23;9.07;;;5.30;;
12088;SDS011;6107;49.078;8.578;2022-09-21T04:46:49;13.37;;;6.67;;
12088;SDS011;6107;49.078;8.578;2022-09-21T04:49:14;10.00;;;5.30;;
12088;SDS011;6107;49.078;8.578;2022-09-21T04:51:40;8.67;;;5.03;;
12088;SDS011;6107;49.078;8.578;2022-09-21T04:54:06;8.40;;;4.60;;
12088;SDS011;6107;49.078;8.578;2022-09-21T04:56:32;9.40;;;5.10;;
12088;SDS011;6107;49.078;8.578;2022-09-21T04:58:57;8.67;;;4.73;;
12088;SDS011;6107;49.078;8.578;2022-09-21T05:01:23;8.53;;;4.43;;
12088;SDS011;6107;49.078;8.578;2022-09-21T05:03:48;9.23;;;4.93;;
12088;SDS011;6107;49.078;8.578;2022-09-21T05:06:14;8.30;;;5.10;;
12088;SDS011;6107;49.078;8.578;2022-09-21T05:08:40;11.17;;;6.50;;
12088;SDS011;6107;49.078;8.578;2022-09-21T05:11:24;8.00;;;5.27;;
12088;SDS011;6107;49.078;8.578;2022-09-21T05:13:50;7.00;;;4.63;;
12088;SDS011;6107;49.078;8.578;2022-09-21T05:16:16;7.07;;;4.63;;
12088;SDS011;6107;49.078;8.578;2022-09-21T05:18:42;6.87;;;4.90;;
12088;SDS011;6107;49.078;8.578;2022-09-21T05:21:10;9.33;;;5.37;;
12088;SDS011;6107;49.078;8.578;2022-09-21T05:23:37;8.33;;;4.80;;
12088;SDS011;6107;49.078;8.578;2022-09-21T05:26:02;9.60;;;5.47;;
12088;SDS011;6107;49.078;8.578;2022-09-21T05:28:28;7.77;;;5.30;;
12088;SDS011;6107;49.078;8.578;2022-09-21T05:30:58;9.47;;;5.07;;
12088;SDS011;6107;49.078;8.578;2022-09-21T05:33:36;9.00;;;5.10;;
12088;SDS011;6107;49.078;8.578;2022-09-21T05:38:56;7.90;;;4.97;;
12088;SDS011;6107;49.078;8.578;2022-09-21T05:41:22;10.97;;;5.17;;
12088;SDS011;6107;49.078;8.578;2022-09-21T05:43:48;8.63;;;4.67;;
12088;SDS011;6107;49.078;8.578;2022-09-21T05:46:48;8.70;;;4.87;;
12088;SDS011;6107;49.078;8.578;2022-09-21T05:54:30;8.97;;;5.53;;
12088;SDS011;6107;49.078;8.578;2022-09-21T05:57:12;7.67;;;5.20;;
12088;SDS011;6107;49.078;8.578;2022-09-21T06:05:11;8.03;;;4.77;;
12088;SDS011;6107;49.078;8.578;2022-09-21T06:07:38;10.80;;;5.73;;
12088;SDS011;6107;49.078;8.578;2022-09-21T06:10:03;9.77;;;5.80;;
12088;SDS011;6107;49.078;8.578;2022-09-21T06:12:29;10.27;;;6.23;;
12088;SDS011;6107;49.078;8.578;2022-09-21T06:14:55;9.47;;;6.03;;
12088;SDS011;6107;49.078;8.578;2022-09-21T06:17:21;12.77;;;7.30;;
12088;SDS011;6107;49.078;8.578;2022-09-21T06:19:47;11.27;;;8.13;;
12088;SDS011;6107;49.078;8.578;2022-09-21T06:22:12;17.67;;;8.40;;
12088;SDS011;6107;49.078;8.578;2022-09-21T06:24:38;14.60;;;8.20;;
12088;SDS011;6107;49.078;8.578;2022-09-21T06:27:03;17.67;;;9.37;;
12088;SDS011;6107;49.078;8.578;2022-09-21T06:29:29;15.23;;;8.40;;
12088;SDS011;6107;49.078;8.578;2022-09-21T06:31:55;11.90;;;8.37;;
12088;SDS011;6107;49.078;8.578;2022-09-21T06:34:20;14.33;;;7.80;;
12088;SDS011;6107;49.078;8.578;2022-09-21T06:36:46;15.77;;;7.97;;
12088;SDS011;6107;49.078;8.578;2022-09-21T06:39:11;20.73;;;8.60;;
12088;SDS011;6107;49.078;8.578;2022-09-21T06:41:37;13.47;;;7.20;;
12088;SDS011;6107;49.078;8.578;2022-09-21T06:44:03;12.83;;;7.77;;
12088;SDS011;6107;49.078;8.578;2022-09-21T06:46:28;12.00;;;7.53;;
12088;SDS011;6107;49.078;8.578;2022-09-21T06:48:54;14.20;;;7.43;;
12088;SDS011;6107;49.078;8.578;2022-09-21T06:51:20;15.83;;;7.50;;
12088;SDS011;6107;49.078;8.578;2022-09-21T06:53:46;14.13;;;7.37;;
12088;SDS011;6107;49.078;8.578;2022-09-21T06:56:12;14.27;;;7.80;;
12088;SDS011;6107;49.078;8.578;2022-09-21T06:58:38;11.50;;;6.97;;
12088;SDS011;6107;49.078;8.578;2022-09-21T07:01:07;12.07;;;7.47;;
12088;SDS011;6107;49.078;8.578;2022-09-21T07:03:35;14.97;;;7.87;;
12088;SDS011;6107;49.078;8.578;2022-09-21T07:06:04;12.20;;;7.60;;
12088;SDS011;6107;49.078;8.578;2022-09-21T07:08:30;14.00;;;8.10;;
12088;SDS011;6107;49.078;8.578;2022-09-21T07:10:56;14.57;;;7.17;;
12088;SDS011;6107;49.078;8.578;2022-09-21T07:13:26;14.70;;;7.67;;
12088;SDS011;6107;49.078;8.578;2022-09-21T07:15:52;12.60;;;6.77;;
12088;SDS011;6107;49.078;8.578;2022-09-21T07:18:18;11.57;;;8.13;;
12088;SDS011;6107;49.078;8.578;2022-09-21T07:20:45;13.23;;;7.43;;
12088;SDS011;6107;49.078;8.578;2022-09-21T07:23:13;16.87;;;7.80;;
12088;SDS011;6107;49.078;8.578;2022-09-21T07:25:44;13.60;;;7.70;;
12088;SDS011;6107;49.078;8.578;2022-09-21T07:28:13;13.10;;;8.17;;
12088;SDS011;6107;49.078;8.578;2022-09-21T07:30:38;15.80;;;7.67;;
12088;SDS011;6107;49.078;8.578;2022-09-21T07:33:05;12.90;;;7.30;;
12088;SDS011;6107;49.078;8.578;2022-09-21T07:35:30;10.80;;;7.67;;
12088;SDS011;6107;49.078;8.578;2022-09-21T07:37:57;12.00;;;7.80;;
12088;SDS011;6107;49.078;8.578;2022-09-21T07:40:26;11.13;;;7.80;;
12088;SDS011;6107;49.078;8.578;2022-09-21T07:42:56;12.17;;;7.50;;
12088;SDS011;6107;49.078;8.578;2022-09-21T07:45:22;21.23;;;8.13;;
12088;SDS011;6107;49.078;8.578;2022-09-21T07:47:49;15.07;;;8.03;;
12088;SDS011;6107;49.078;8.578;2022-09-21T07:50:18;14.03;;;7.30;;
12088;SDS011;6107;49.078;8.578;2022-09-21T07:52:44;11.93;;;8.00;;
12088;SDS011;6107;49.078;8.578;2022-09-21T07:55:09;14.50;;;8.43;;
12088;SDS011;6107;49.078;8.578;2022-09-21T07:57:35;14.70;;;8.33;;
12088;SDS011;6107;49.078;8.578;2022-09-21T08:00:19;13.30;;;7.80;;
12088;SDS011;6107;49.078;8.578;2022-09-21T08:02:44;12.30;;;7.20;;
12088;SDS011;6107;49.078;8.578;2022-09-21T08:05:10;13.53;;;8.17;;
12088;SDS011;6107;49.078;8.578;2022-09-21T08:07:36;14.83;;;8.10;;
12088;SDS011;6107;49.078;8.578;2022-09-21T08:10:01;10.83;;;7.30;;
12088;SDS011;6107;49.078;8.578;2022-09-21T08:12:27;15.80;;;7.77;;
12088;SDS011;6107;49.078;8.578;2022-09-21T08:14:53;14.40;;;7.87;;
12088;SDS011;6107;49.078;8.578;2022-09-21T08:17:18;12.90;;;7.40;;
12088;SDS011;6107;49.078;8.578;2022-09-21T08:19:44;10.57;;;6.53;;
12088;SDS011;6107;49.078;8.578;2022-09-21T08:22:09;12.70;;;7.43;;
12088;SDS011;6107;49.078;8.578;2022-09-21T08:24:36;9.30;;;6.53;;
12088;SDS011;6107;49.078;8.578;2022-09-21T08:27:01;10.33;;;6.67;;
12088;SDS011;6107;49.078;8.578;2022-09-21T08:29:27;6.70;;;4.47;;
12088;SDS011;6107;49.078;8.578;2022-09-21T08:31:54;10.17;;;6.00;;
12088;SDS011;6107;49.078;8.578;2022-09-21T08:34:20;10.27;;;6.00;;
12088;SDS011;6107;49.078;8.578;2022-09-21T08:36:47;7.13;;;5.00;;
12088;SDS011;6107;49.078;8.578;2022-09-21T08:39:12;11.13;;;5.27;;
12088;SDS011;6107;49.078;8.578;2022-09-21T08:44:14;9.37;;;4.47;;
12088;SDS011;6107;49.078;8.578;2022-09-21T08:46:49;9.77;;;4.97;;
12088;SDS011;6107;49.078;8.578;2022-09-21T08:49:28;8.60;;;4.93;;
12088;SDS011;6107;49.078;8.578;2022-09-21T08:52:01;11.23;;;4.20;;
12088;SDS011;6107;49.078;8.578;2022-09-21T08:54:34;8.00;;;4.33;;
12088;SDS011;6107;49.078;8.578;2022-09-21T08:57:04;5.70;;;3.80;;
12088;SDS011;6107;49.078;8.578;2022-09-21T08:59:33;7.93;;;4.07;;
12088;SDS011;6107;49.078;8.578;2022-09-21T09:02:06;4.10;;;3.30;;
12088;SDS011;6107;49.078;8.578;2022-09-21T09:04:40;8.07;;;4.13;;
12088;SDS011;6107;49.078;8.578;2022-09-21T09:07:19;6.33;;;4.00;;
12088;SDS011;6107;49.078;8.578;2022-09-21T09:10:31;6.17;;;3.60;;
12088;SDS011;6107;49.078;8.578;2022-09-21T09:18:42;8.47;;;4.63;;
12088;SDS011;6107;49.078;8.578;2022-09-21T09:21:11;10.83;;;4.73;;
12088;SDS011;6107;49.078;8.578;2022-09-21T09:23:45;9.93;;;3.50;;
12088;SDS011;6107;49.078;8.578;2022-09-21T09:26:27;5.07;;;3.47;;
12088;SDS011;6107;49.078;8.578;2022-09-21T09:28:59;5.97;;;3.30;;
12088;SDS011;6107;49.078;8.578;2022-09-21T09:31:31;6.07;;;2.93;;
12088;SDS011;6107;49.078;8.578;2022-09-21T09:33:59;5.00;;;3.10;;
12088;SDS011;6107;49.078;8.578;2022-09-21T09:36:37;4.23;;;2.80;;
12088;SDS011;6107;49.078;8.578;2022-09-21T09:39:10;5.20;;;3.10;;
12088;SDS011;6107;49.078;8.578;2022-09-21T09:41:44;4.63;;;2.93;;
12088;SDS011;6107;49.078;8.578;2022-09-21T09:52:31;3.67;;;2.63;;
12088;SDS011;6107;49.078;8.578;2022-09-21T09:54:57;5.28;;;3.05;;
12088;SDS011;6107;49.078;8.578;2022-09-21T09:57:31;4.70;;;2.30;;
12088;SDS011;6107;49.078;8.578;2022-09-21T09:59:58;4.28;;;2.60;;
12088;SDS011;6107;49.078;8.578;2022-09-21T10:02:32;3.65;;;2.50;;
12088;SDS011;6107;49.078;8.578;2022-09-21T10:05:17;4.25;;;2.03;;
12088;SDS011;6107;49.078;8.578;2022-09-21T10:07:59;5.47;;;2.25;;
12088;SDS011;6107;49.078;8.578;2022-09-21T10:15:56;3.47;;;1.90;;
12088;SDS011;6107;49.078;8.578;2022-09-21T10:18:35;4.38;;;2.50;;
12088;SDS011;6107;49.078;8.578;2022-09-21T10:23:30;3.85;;;1.40;;
12088;SDS011;6107;49.078;8.578;2022-09-21T10:26:00;2.13;;;1.30;;
12088;SDS011;6107;49.078;8.578;2022-09-21T10:28:34;3.13;;;1.70;;
12088;SDS011;6107;49.078;8.578;2022-09-21T10:34:06;2.80;;;1.40;;
12088;SDS011;6107;49.078;8.578;2022-09-21T10:36:38;2.65;;;1.70;;
12088;SDS011;6107;49.078;8.578;2022-09-21T10:41:52;2.20;;;1.60;;
12088;SDS011;6107;49.078;8.578;2022-09-21T10:44:19;5.07;;;1.70;;
12088;SDS011;6107;49.078;8.578;2022-09-21T10:46:46;2.20;;;1.40;;
12088;SDS011;6107;49.078;8.578;2022-09-21T10:49:19;3.03;;;1.77;;
12088;SDS011;6107;49.078;8.578;2022-09-21T10:51:48;2.65;;;1.50;;
12088;SDS011;6107;49.078;8.578;2022-09-21T10:54:18;4.00;;;2.25;;
12088;SDS011;6107;49.078;8.578;2022-09-21T10:56:59;3.45;;;1.48;;
12088;SDS011;6107;49.078;8.578;2022-09-21T10:59:32;2.90;;;1.55;;
12088;SDS011;6107;49.078;8.578;2022-09-21T11:01:59;2.50;;;1.38;;
12088;SDS011;6107;49.078;8.578;2022-09-21T11:04:47;2.17;;;1.42;;
12088;SDS011;6107;49.078;8.578;2022-09-21T11:07:26;1.40;;;1.20;;
12088;SDS011;6107;49.078;8.578;2022-09-21T11:12:46;1.45;;;1.10;;
12088;SDS011;6107;49.078;8.578;2022-09-21T11:15:39;1.98;;;1.25;;
12088;SDS011;6107;49.078;8.578;2022-09-21T11:18:17;2.30;;;1.17;;
12088;SDS011;6107;49.078;8.578;2022-09-21T11:20:58;1.30;;;0.95;;
12088;SDS011;6107;49.078;8.578;2022-09-21T11:23:42;3.13;;;1.20;;
12088;SDS011;6107;49.078;8.578;2022-09-21T11:28:56;1.98;;;1.27;;
12088;SDS011;6107;49.078;8.578;2022-09-21T11:31:56;3.03;;;1.20;;
12088;SDS011;6107;49.078;8.578;2022-09-21T11:34:46;2.55;;;1.10;;
12088;SDS011;6107;49.078;8.578;2022-09-21T11:37:30;1.70;;;1.00;;
12088;SDS011;6107;49.078;8.578;2022-09-21T11:59:44;3.10;;;0.95;;
12088;SDS011;6107;49.078;8.578;2022-09-21T12:07:55;3.05;;;1.20;;
12088;SDS011;6107;49.078;8.578;2022-09-21T12:14:18;1.27;;;1.13;;
12088;SDS011;6107;49.078;8.578;2022-09-21T12:16:49;2.08;;;1.10;;
12088;SDS011;6107;49.078;8.578;2022-09-21T12:22:54;1.20;;;1.10;;
12088;SDS011;6107;49.078;8.578;2022-09-21T12:25:27;2.03;;;0.93;;
12088;SDS011;6107;49.078;8.578;2022-09-21T12:30:43;1.67;;;0.90;;
12088;SDS011;6107;49.078;8.578;2022-09-21T12:36:07;1.85;;;0.90;;
12088;SDS011;6107;49.078;8.578;2022-09-21T12:41:26;1.67;;;0.90;;
12088;SDS011;6107;49.078;8.578;2022-09-21T12:44:04;2.05;;;1.00;;
12088;SDS011;6107;49.078;8.578;2022-09-21T12:46:58;2.42;;;1.10;;
12088;SDS011;6107;49.078;8.578;2022-09-21T12:49:39;3.00;;;1.10;;
12088;SDS011;6107;49.078;8.578;2022-09-21T12:52:09;1.83;;;0.90;;
12088;SDS011;6107;49.078;8.578;2022-09-21T12:54:55;1.55;;;0.88;;
12088;SDS011;6107;49.078;8.578;2022-09-21T13:00:04;2.95;;;1.30;;
12088;SDS011;6107;49.078;8.578;2022-09-21T13:02:36;2.13;;;1.30;;
12088;SDS011;6107;49.078;8.578;2022-09-21T13:05:14;1.52;;;1.02;;
12088;SDS011;6107;49.078;8.578;2022-09-21T13:08:10;1.35;;;1.20;;
12088;SDS011;6107;49.078;8.578;2022-09-21T13:10:44;3.22;;;1.20;;
12088;SDS011;6107;49.078;8.578;2022-09-21T13:13:24;1.75;;;1.10;;
12088;SDS011;6107;49.078;8.578;2022-09-21T13:18:56;1.50;;;1.00;;
12088;SDS011;6107;49.078;8.578;2022-09-21T13:21:25;2.42;;;1.05;;
12088;SDS011;6107;49.078;8.578;2022-09-21T13:26:29;2.35;;;1.20;;
12088;SDS011;6107;49.078;8.578;2022-09-21T13:31:50;1.48;;;0.93;;
12088;SDS011;6107;49.078;8.578;2022-09-21T13:34:23;1.33;;;1.15;;
12088;SDS011;6107;49.078;8.578;2022-09-21T13:39:35;1.13;;;1.02;;
12088;SDS011;6107;49.078;8.578;2022-09-21T13:44:54;2.25;;;1.10;;
12088;SDS011;6107;49.078;8.578;2022-09-21T13:47:35;2.38;;;1.42;;
12088;SDS011;6107;49.078;8.578;2022-09-21T13:50:25;1.15;;;0.93;;
12088;SDS011;6107;49.078;8.578;2022-09-21T13:53:06;1.13;;;1.02;;
12088;SDS011;6107;49.078;8.578;2022-09-21T13:55:53;2.00;;;1.02;;
12088;SDS011;6107;49.078;8.578;2022-09-21T14:01:11;1.85;;;1.13;;
12088;SDS011;6107;49.078;8.578;2022-09-21T14:03:41;1.10;;;0.90;;
12088;SDS011;6107;49.078;8.578;2022-09-21T14:06:31;1.40;;;0.82;;
12088;SDS011;6107;49.078;8.578;2022-09-21T14:11:29;2.53;;;1.20;;
12088;SDS011;6107;49.078;8.578;2022-09-21T14:14:05;2.40;;;0.90;;
12088;SDS011;6107;49.078;8.578;2022-09-21T14:16:51;2.50;;;1.08;;
12088;SDS011;6107;49.078;8.578;2022-09-21T14:24:44;0.65;;;0.60;;
12088;SDS011;6107;49.078;8.578;2022-09-21T14:32:42;1.63;;;1.10;;
12088;SDS011;6107;49.078;8.578;2022-09-21T14:35:21;1.27;;;1.00;;
12088;SDS011;6107;49.078;8.578;2022-09-21T14:37:53;1.05;;;0.90;;
12088;SDS011;6107;49.078;8.578;2022-09-21T14:40:29;1.80;;;1.40;;
12088;SDS011;6107;49.078;8.578;2022-09-21T14:42:59;1.88;;;1.00;;
12088;SDS011;6107;49.078;8.578;2022-09-21T15:02:16;3.75;;;1.00;;
12088;SDS011;6107;49.078;8.578;2022-09-21T15:07:39;1.30;;;0.90;;
12088;SDS011;6107;49.078;8.578;2022-09-21T15:10:36;0.95;;;0.82;;
12088;SDS011;6107;49.078;8.578;2022-09-21T15:16:24;1.25;;;0.90;;
12088;SDS011;6107;49.078;8.578;2022-09-21T15:21:46;2.13;;;1.05;;
12088;SDS011;6107;49.078;8.578;2022-09-21T15:24:20;2.28;;;0.95;;
12088;SDS011;6107;49.078;8.578;2022-09-21T15:26:49;2.58;;;1.10;;
12088;SDS011;6107;49.078;8.578;2022-09-21T15:29:19;3.15;;;0.85;;
12088;SDS011;6107;49.078;8.578;2022-09-21T15:31:49;1.38;;;1.10;;
12088;SDS011;6107;49.078;8.578;2022-09-21T15:34:16;1.83;;;0.90;;
12088;SDS011;6107;49.078;8.578;2022-09-21T15:36:41;1.42;;;1.00;;
12088;SDS011;6107;49.078;8.578;2022-09-21T15:39:27;3.40;;;1.98;;
12088;SDS011;6107;49.078;8.578;2022-09-21T15:44:32;2.83;;;1.10;;
12088;SDS011;6107;49.078;8.578;2022-09-21T15:46:58;2.97;;;1.20;;
12088;SDS011;6107;49.078;8.578;2022-09-21T15:49:27;1.75;;;1.30;;
12088;SDS011;6107;49.078;8.578;2022-09-21T15:51:57;2.08;;;1.20;;
12088;SDS011;6107;49.078;8.578;2022-09-21T15:54:39;5.90;;;3.95;;
12088;SDS011;6107;49.078;8.578;2022-09-21T15:57:21;3.97;;;3.15;;
12088;SDS011;6107;49.078;8.578;2022-09-21T15:59:49;4.28;;;1.30;;
12088;SDS011;6107;49.078;8.578;2022-09-21T16:02:17;2.80;;;1.48;;
12088;SDS011;6107;49.078;8.578;2022-09-21T16:04:46;1.33;;;1.20;;
12088;SDS011;6107;49.078;8.578;2022-09-21T16:07:24;6.35;;;2.90;;
12088;SDS011;6107;49.078;8.578;2022-09-21T16:09:57;2.25;;;1.42;;
12088;SDS011;6107;49.078;8.578;2022-09-21T16:14:58;4.00;;;2.25;;
12088;SDS011;6107;49.078;8.578;2022-09-21T16:17:33;2.97;;;1.27;;
12088;SDS011;6107;49.078;8.578;2022-09-21T16:20:14;6.65;;;2.25;;
12088;SDS011;6107;49.078;8.578;2022-09-21T16:22:44;4.00;;;1.80;;
12088;SDS011;6107;49.078;8.578;2022-09-21T16:25:31;2.45;;;1.58;;
12088;SDS011;6107;49.078;8.578;2022-09-21T16:30:44;3.65;;;1.60;;
12088;SDS011;6107;49.078;8.578;2022-09-21T16:38:53;2.55;;;1.38;;
12088;SDS011;6107;49.078;8.578;2022-09-21T16:41:19;2.15;;;1.63;;
12088;SDS011;6107;49.078;8.578;2022-09-21T16:43:46;1.98;;;1.48;;
12088;SDS011;6107;49.078;8.578;2022-09-21T16:46:12;2.83;;;1.60;;
12088;SDS011;6107;49.078;8.578;2022-09-21T16:48:37;2.38;;;1.42;;
12088;SDS011;6107;49.078;8.578;2022-09-21T16:51:22;13.35;;;9.85;;
12088;SDS011;6107;49.078;8.578;2022-09-21T16:53:52;5.18;;;1.55;;
12088;SDS011;6107;49.078;8.578;2022-09-21T16:56:18;2.67;;;1.50;;
12088;SDS011;6107;49.078;8.578;2022-09-21T16:58:44;3.70;;;1.70;;
12088;SDS011;6107;49.078;8.578;2022-09-21T17:01:15;2.13;;;1.40;;
12088;SDS011;6107;49.078;8.578;2022-09-21T17:03:44;4.93;;;2.33;;
12088;SDS011;6107;49.078;8.578;2022-09-21T17:06:15;5.80;;;3.10;;
12088;SDS011;6107;49.078;8.578;2022-09-21T17:08:42;6.53;;;3.20;;
12088;SDS011;6107;49.078;8.578;2022-09-21T17:11:08;2.08;;;1.88;;
12088;SDS011;6107;49.078;8.578;2022-09-21T17:13:34;1.98;;;1.50;;
12088;SDS011;6107;49.078;8.578;2022-09-21T17:16:00;3.13;;;1.30;;
12088;SDS011;6107;49.078;8.578;2022-09-21T17:18:25;4.97;;;1.35;;
12088;SDS011;6107;49.078;8.578;2022-09-21T17:20:52;5.68;;;1.58;;
12088;SDS011;6107;49.078;8.578;2022-09-21T17:23:17;2.40;;;1.45;;
12088;SDS011;6107;49.078;8.578;2022-09-21T17:25:44;3.63;;;3.10;;
12088;SDS011;6107;49.078;8.578;2022-09-21T17:28:16;6.22;;;3.17;;
12088;SDS011;6107;49.078;8.578;2022-09-21T17:30:47;7.22;;;5.57;;
12088;SDS011;6107;49.078;8.578;2022-09-21T17:33:13;2.97;;;1.80;;
12088;SDS011;6107;49.078;8.578;2022-09-21T17:35:41;9.18;;;6.10;;
12088;SDS011;6107;49.078;8.578;2022-09-21T17:38:07;4.88;;;3.70;;
12088;SDS011;6107;49.078;8.578;2022-09-21T17:40:33;2.30;;;2.10;;
12088;SDS011;6107;49.078;8.578;2022-09-21T17:45:39;4.30;;;3.53;;
12088;SDS011;6107;49.078;8.578;2022-09-21T17:48:18;7.63;;;4.37;;
12088;SDS011;6107;49.078;8.578;2022-09-21T17:50:45;8.90;;;6.00;;
12088;SDS011;6107;49.078;8.578;2022-09-21T17:53:11;4.23;;;2.60;;
12088;SDS011;6107;49.078;8.578;2022-09-21T17:55:56;8.57;;;6.27;;
12088;SDS011;6107;49.078;8.578;2022-09-21T18:01:21;4.23;;;2.37;;
12088;SDS011;6107;49.078;8.578;2022-09-21T18:03:58;3.33;;;2.10;;
12088;SDS011;6107;49.078;8.578;2022-09-21T18:06:24;2.73;;;2.20;;
12088;SDS011;6107;49.078;8.578;2022-09-21T18:08:50;3.17;;;2.27;;
12088;SDS011;6107;49.078;8.578;2022-09-21T18:17:03;3.83;;;2.20;;
12088;SDS011;6107;49.078;8.578;2022-09-21T18:25:36;4.47;;;2.30;;
12088;SDS011;6107;49.078;8.578;2022-09-21T18:28:08;4.13;;;2.53;;
12088;SDS011;6107;49.078;8.578;2022-09-21T18:30:40;3.23;;;2.20;;
12088;SDS011;6107;49.078;8.578;2022-09-21T18:36:02;2.97;;;2.00;;
12088;SDS011;6107;49.078;8.578;2022-09-21T18:38:59;3.57;;;2.03;;
12088;SDS011;6107;49.078;8.578;2022-09-21T18:41:30;4.60;;;2.10;;
12088;SDS011;6107;49.078;8.578;2022-09-21T18:44:13;5.83;;;2.17;;
12088;SDS011;6107;49.078;8.578;2022-09-21T18:46:54;4.03;;;2.00;;